F/V Fleur Des Vagues — FPEJ — position and weather

sailwx.info

Track history (hours):
 
Tides and Currents Weather Stations Pressure Air Temp Water Temp Dewpoint Dewpoint Depression Visibility Wind Speed Wind Dir Waves Ship Positions

F/V Fleur Des Vagues

Last reported at 2015-Jul-01 10:33 UTC. Time now 2015-Jul-06 05:00 UTC.
Position N 46°30' W 001°47'.

Length 16 m.

Type: Fishing. MMSI: 227893000.

Date/timePositionNaut miles runAvg speedWind from/ knotsBaromVisibWave heightAir tempDewpointWater temp
2015-Jul-01 10:33N 46°30' W 001°47'0 0.4
2015-Jul-01 09:33N 46°30' W 001°48'7 7.3
2015-Jul-01 08:33N 46°26' W 001°57'4 3.7
2015-Jul-01 07:32N 46°25' W 002°02'1 1.1
2015-Jul-01 06:33N 46°26' W 002°03'0 0.1
2015-Jul-01 04:33N 46°26' W 002°03'1 1.5
2015-Jul-01 03:33N 46°24' W 002°03'2 1.5
2015-Jul-01 02:33N 46°26' W 002°04'1 1.3
2015-Jul-01 01:33N 46°25' W 002°03'2 0.6
2015-Jun-30 22:06N 46°27' W 002°03'0 0.0
2015-Jun-30 21:27N 46°27' W 002°04'0 0.0
2015-Jun-30 20:33N 46°27' W 002°04'0 0.1
2015-Jun-30 19:33N 46°27' W 002°04'0 0.0
2015-Jun-30 18:33N 46°27' W 002°04'0 0.1
2015-Jun-30 17:33N 46°27' W 002°04'0 0.0
2015-Jun-30 16:33N 46°27' W 002°04'0 0.0
2015-Jun-30 15:33N 46°27' W 002°03'0 0.0
2015-Jun-30 14:33N 46°27' W 002°03'0 0.1
2015-Jun-30 13:33N 46°27' W 002°03'1 1.3
2015-Jun-30 12:33N 46°25' W 002°03'1 1.2
2015-Jun-30 11:33N 46°26' W 002°03'6 5.6
2015-Jun-30 10:33N 46°29' W 001°56'2 2.0
2015-Jun-30 09:34N 46°31' W 001°57'1 1.3
2015-Jun-30 08:34N 46°30' W 001°56'0 0.3
2015-Jun-30 07:33N 46°29' W 001°56'2 2.1
2015-Jun-30 06:33N 46°31' W 001°57'2 1.7
2015-Jun-30 05:34N 46°30' W 001°56'0 0.2
2015-Jun-30 04:33N 46°30' W 001°56'1 1.3
2015-Jun-30 03:33N 46°31' W 001°56'2 1.6
2015-Jun-30 02:33N 46°30' W 001°55'5 5.2
2015-Jun-30 01:33N 46°30' W 001°48'0 0.4
2015-Jun-30 00:33N 46°30' W 001°47'0 0.0
2015-Jun-29 23:33N 46°30' W 001°47'0 0.0
2015-Jun-29 22:33N 46°30' W 001°47'0 0.0
2015-Jun-29 21:33N 46°30' W 001°47'0 0.0
2015-Jun-29 20:33N 46°30' W 001°47'0 0.0
2015-Jun-29 19:33N 46°30' W 001°47'0 0.0
2015-Jun-29 18:33N 46°30' W 001°47'3 3.2
2015-Jun-29 17:33N 46°29' W 001°52'4 3.7
2015-Jun-29 16:33N 46°30' W 001°57'8 8.0
2015-Jun-29 15:33N 46°26' W 002°06'0 0.3
2015-Jun-29 14:33N 46°26' W 002°07'0 0.3
2015-Jun-29 13:33N 46°25' W 002°07'1 0.7
2015-Jun-29 12:33N 46°25' W 002°07'8 7.9
2015-Jun-29 11:33N 46°30' W 001°58'2 2.3
2015-Jun-29 10:33N 46°29' W 001°55'5 5.5
2015-Jun-29 09:33N 46°30' W 001°47'0 0.0
2015-Jun-29 08:33N 46°30' W 001°47'0 0.0
2015-Jun-29 07:33N 46°30' W 001°47'0 0.0
2015-Jun-29 06:33N 46°30' W 001°47'5 4.9
2015-Jun-29 05:33N 46°28' W 001°54'9 8.5
2015-Jun-29 04:33N 46°26' W 002°06'1 1.2
2015-Jun-29 03:32N 46°27' W 002°06'2 1.6
2015-Jun-29 02:33N 46°28' W 002°05'0 0.3
2015-Jun-29 01:33N 46°28' W 002°04'1 0.7
2015-Jun-29 00:33N 46°29' W 002°05'1 1.4
2015-Jun-28 23:33N 46°28' W 002°04'0 0.2
2015-Jun-28 22:33N 46°28' W 002°03'0 0.0
2015-Jun-28 21:33N 46°28' W 002°03'0 0.0
2015-Jun-28 20:33N 46°28' W 002°03'0 0.0
2015-Jun-28 19:33N 46°28' W 002°03'0 0.0
2015-Jun-28 18:33N 46°28' W 002°03'0 0.0
2015-Jun-28 17:33N 46°28' W 002°03'0 0.0
2015-Jun-28 16:33N 46°28' W 002°03'0 0.0
2015-Jun-28 15:33N 46°28' W 002°03'0 0.0
2015-Jun-28 14:33N 46°28' W 002°03'0 0.0
2015-Jun-28 13:33N 46°28' W 002°03'0 0.0
2015-Jun-28 12:33N 46°28' W 002°03'1 0.8
2015-Jun-28 11:33N 46°28' W 002°04'3 3.1
2015-Jun-28 10:33N 46°25' W 002°06'2 2.3
2015-Jun-28 09:29N 46°28' W 002°04'8 8.2
2015-Jun-28 08:28N 46°35' W 002°10'3 3.3
2015-Jun-28 07:33N 46°36' W 002°14'1 1.4
2015-Jun-28 06:33N 46°37' W 002°16'1 1.4
2015-Jun-28 05:33N 46°36' W 002°15'0 0.3
2015-Jun-28 04:34N 46°36' W 002°15'1 1.3
2015-Jun-28 03:33N 46°37' W 002°16'2 1.7
2015-Jun-28 02:34N 46°36' W 002°14'1 0.5
2015-Jun-28 01:34N 46°36' W 002°14'1 1.3
2015-Jun-28 00:34N 46°38' W 002°15'2 1.9
2015-Jun-27 23:34N 46°36' W 002°13'1 0.6
2015-Jun-27 22:33N 46°36' W 002°13'0 0.0
2015-Jun-27 21:33N 46°36' W 002°13'0 0.1
2015-Jun-27 20:33N 46°36' W 002°13'0 0.0
2015-Jun-27 19:33N 46°36' W 002°13'0 0.0
2015-Jun-27 18:33N 46°36' W 002°13'0 0.0
2015-Jun-27 17:33N 46°36' W 002°13'0 0.0
2015-Jun-27 16:33N 46°36' W 002°13'0 0.0
2015-Jun-27 15:33N 46°36' W 002°13'0 0.0
2015-Jun-27 14:31N 46°36' W 002°13'0 0.2
2015-Jun-27 13:14N 46°35' W 002°13'2 1.2
2015-Jun-27 11:30N 46°34' W 002°12'7 7.9
2015-Jun-27 10:33N 46°29' W 002°03'8 7.6
2015-Jun-27 09:33N 46°22' W 001°59'3 2.8
2015-Jun-27 08:33N 46°20' W 001°57'1 1.0
2015-Jun-27 07:31N 46°19' W 001°59'1 1.2
2015-Jun-27 06:33N 46°19' W 001°57'2 1.2
2015-Jun-27 05:13N 46°19' W 001°59'1 1.8
2015-Jun-27 04:34N 46°20' W 001°58'0 0.4
2015-Jun-27 03:33N 46°19' W 001°58'0 0.5
2015-Jun-27 02:33N 46°20' W 001°58'1 0.8
2015-Jun-27 01:33N 46°19' W 001°59'0 0.5
2015-Jun-27 00:33N 46°19' W 001°59'0 0.0
2015-Jun-26 23:33N 46°19' W 001°59'0 0.0
2015-Jun-26 22:33N 46°19' W 001°59'0 0.0
2015-Jun-26 21:33N 46°19' W 001°59'0 0.0
2015-Jun-26 20:33N 46°19' W 001°59'0 0.0
2015-Jun-26 19:33N 46°19' W 001°59'0 0.0
2015-Jun-26 18:33N 46°19' W 001°59'0 0.0
2015-Jun-26 17:33N 46°19' W 001°59'0 0.0
2015-Jun-26 16:33N 46°19' W 001°59'0 0.0
2015-Jun-26 15:33N 46°19' W 001°60'0 0.0
2015-Jun-26 14:33N 46°19' W 001°60'0 0.0
2015-Jun-26 13:33N 46°19' W 001°60'1 0.6
2015-Jun-26 12:33N 46°19' W 001°59'1 1.0
2015-Jun-26 11:33N 46°20' W 001°57'2 1.9
2015-Jun-26 10:33N 46°18' W 001°59'2 2.0
2015-Jun-26 09:33N 46°20' W 001°57'1 0.6
2015-Jun-26 08:33N 46°19' W 001°58'0 0.3
2015-Jun-26 07:34N 46°19' W 001°58'0 0.3
2015-Jun-26 06:32N 46°19' W 001°59'4 4.0
2015-Jun-26 05:33N 46°16' W 001°56'4 4.2
2015-Jun-26 04:33N 46°14' W 001°50'1 1.3
2015-Jun-26 03:33N 46°16' W 001°51'1 1.1
2015-Jun-26 02:33N 46°15' W 001°49'2 1.6
2015-Jun-26 01:33N 46°16' W 001°50'7 6.7
2015-Jun-26 00:33N 46°23' W 001°49'7 7.2
2015-Jun-25 23:33N 46°30' W 001°47'0 0.0
2015-Jun-25 22:33N 46°30' W 001°47'0 0.0
2015-Jun-25 21:33N 46°30' W 001°47'0 0.0
2015-Jun-25 20:33N 46°30' W 001°47'0 0.0
2015-Jun-25 19:33N 46°30' W 001°47'0 0.0
2015-Jun-25 18:33N 46°30' W 001°47'0 0.0
2015-Jun-25 17:33N 46°30' W 001°47'0 0.0
2015-Jun-25 16:33N 46°30' W 001°47'0 0.0
2015-Jun-25 15:33N 46°30' W 001°47'0 0.0
2015-Jun-25 14:33N 46°30' W 001°47'0 0.0
2015-Jun-25 13:33N 46°30' W 001°47'0 0.0
2015-Jun-25 12:33N 46°30' W 001°47'5 5.0
2015-Jun-25 11:33N 46°26' W 001°51'8 7.9
2015-Jun-25 10:33N 46°20' W 001°58'2 1.6
2015-Jun-25 09:33N 46°18' W 001°58'6 6.0
2015-Jun-25 08:33N 46°15' W 001°50'3 2.9
2015-Jun-25 07:34N 46°18' W 001°48'2 2.2
2015-Jun-25 06:33N 46°19' W 001°45'2 2.1
2015-Jun-25 05:34N 46°17' W 001°48'1 0.9
2015-Jun-25 04:33N 46°18' W 001°46'1 0.9
2015-Jun-25 03:33N 46°19' W 001°46'2 1.7
2015-Jun-25 02:33N 46°18' W 001°48'2 2.1
2015-Jun-25 01:33N 46°19' W 001°45'2 1.8
2015-Jun-25 00:34N 46°18' W 001°48'1 1.2
2015-Jun-24 23:33N 46°17' W 001°49'0 0.0
2015-Jun-24 22:33N 46°17' W 001°49'0 0.0
2015-Jun-24 21:33N 46°17' W 001°49'0 0.0
2015-Jun-24 20:33N 46°17' W 001°49'0 0.0
2015-Jun-24 19:33N 46°17' W 001°49'0 0.0
2015-Jun-24 18:33N 46°17' W 001°48'0 0.0
2015-Jun-24 17:33N 46°17' W 001°48'0 0.0
2015-Jun-24 16:33N 46°17' W 001°48'0 0.0
2015-Jun-24 15:33N 46°17' W 001°49'0 0.0
2015-Jun-24 14:33N 46°17' W 001°49'0 0.0
2015-Jun-24 13:33N 46°17' W 001°49'0 0.0
2015-Jun-24 12:33N 46°17' W 001°49'2 2.0
2015-Jun-24 11:33N 46°18' W 001°46'1 1.1
2015-Jun-24 10:33N 46°18' W 001°47'4 3.6
2015-Jun-24 09:33N 46°19' W 001°52'4 4.4
2015-Jun-24 08:33N 46°20' W 001°59'0 0.3
2015-Jun-24 07:26N 46°20' W 001°58'0 0.3
2015-Jun-24 06:33N 46°20' W 001°58'0 0.4
2015-Jun-24 05:33N 46°19' W 001°57'1 0.7
2015-Jun-24 04:33N 46°20' W 001°58'1 1.1
2015-Jun-24 03:30N 46°19' W 001°59'0 0.2
2015-Jun-24 02:33N 46°19' W 001°59'0 0.1
2015-Jun-24 01:33N 46°19' W 001°59'0 0.4
2015-Jun-24 00:33N 46°19' W 001°59'0 0.1
2015-Jun-23 23:33N 46°19' W 001°59'0 0.0
2015-Jun-23 22:33N 46°19' W 001°59'0 0.0
2015-Jun-23 21:33N 46°19' W 001°59'0 0.0
2015-Jun-23 20:33N 46°19' W 001°59'0 0.0
2015-Jun-23 19:33N 46°19' W 001°59'0 0.0
2015-Jun-23 19:06N 46°19' W 001°59'  
Track history (hours):
 
Tides and Currents Weather Stations Pressure Air Temp Water Temp Dewpoint Dewpoint Depression Visibility Wind Speed Wind Dir Waves Ship Positions

F/V Fleur Des Vagues

Last reported at 2015-Jul-01 10:33 UTC. Time now 2015-Jul-06 05:00 UTC.
Position N 46°30' W 001°47'.

Length 16 m.

Type: Fishing. MMSI: 227893000.

Date/timePositionNaut miles runAvg speedWind from/ knotsBaromVisibWave heightAir tempDewpointWater temp
2015-Jul-01 10:33N 46°30' W 001°47'0 0.4
2015-Jul-01 09:33N 46°30' W 001°48'7 7.3
2015-Jul-01 08:33N 46°26' W 001°57'4 3.7
2015-Jul-01 07:32N 46°25' W 002°02'1 1.1
2015-Jul-01 06:33N 46°26' W 002°03'0 0.1
2015-Jul-01 04:33N 46°26' W 002°03'1 1.5
2015-Jul-01 03:33N 46°24' W 002°03'2 1.5
2015-Jul-01 02:33N 46°26' W 002°04'1 1.3
2015-Jul-01 01:33N 46°25' W 002°03'2 0.6
2015-Jun-30 22:06N 46°27' W 002°03'0 0.0
2015-Jun-30 21:27N 46°27' W 002°04'0 0.0
2015-Jun-30 20:33N 46°27' W 002°04'0 0.1
2015-Jun-30 19:33N 46°27' W 002°04'0 0.0
2015-Jun-30 18:33N 46°27' W 002°04'0 0.1
2015-Jun-30 17:33N 46°27' W 002°04'0 0.0
2015-Jun-30 16:33N 46°27' W 002°04'0 0.0
2015-Jun-30 15:33N 46°27' W 002°03'0 0.0
2015-Jun-30 14:33N 46°27' W 002°03'0 0.1
2015-Jun-30 13:33N 46°27' W 002°03'1 1.3
2015-Jun-30 12:33N 46°25' W 002°03'1 1.2
2015-Jun-30 11:33N 46°26' W 002°03'6 5.6
2015-Jun-30 10:33N 46°29' W 001°56'2 2.0
2015-Jun-30 09:34N 46°31' W 001°57'1 1.3
2015-Jun-30 08:34N 46°30' W 001°56'0 0.3
2015-Jun-30 07:33N 46°29' W 001°56'2 2.1
2015-Jun-30 06:33N 46°31' W 001°57'2 1.7
2015-Jun-30 05:34N 46°30' W 001°56'0 0.2
2015-Jun-30 04:33N 46°30' W 001°56'1 1.3
2015-Jun-30 03:33N 46°31' W 001°56'2 1.6
2015-Jun-30 02:33N 46°30' W 001°55'5 5.2
2015-Jun-30 01:33N 46°30' W 001°48'0 0.4
2015-Jun-30 00:33N 46°30' W 001°47'0 0.0
2015-Jun-29 23:33N 46°30' W 001°47'0 0.0
2015-Jun-29 22:33N 46°30' W 001°47'0 0.0
2015-Jun-29 21:33N 46°30' W 001°47'0 0.0
2015-Jun-29 20:33N 46°30' W 001°47'0 0.0
2015-Jun-29 19:33N 46°30' W 001°47'0 0.0
2015-Jun-29 18:33N 46°30' W 001°47'3 3.2
2015-Jun-29 17:33N 46°29' W 001°52'4 3.7
2015-Jun-29 16:33N 46°30' W 001°57'8 8.0
2015-Jun-29 15:33N 46°26' W 002°06'0 0.3
2015-Jun-29 14:33N 46°26' W 002°07'0 0.3
2015-Jun-29 13:33N 46°25' W 002°07'1 0.7
2015-Jun-29 12:33N 46°25' W 002°07'8 7.9
2015-Jun-29 11:33N 46°30' W 001°58'2 2.3
2015-Jun-29 10:33N 46°29' W 001°55'5 5.5
2015-Jun-29 09:33N 46°30' W 001°47'0 0.0
2015-Jun-29 08:33N 46°30' W 001°47'0 0.0
2015-Jun-29 07:33N 46°30' W 001°47'0 0.0
2015-Jun-29 06:33N 46°30' W 001°47'5 4.9
2015-Jun-29 05:33N 46°28' W 001°54'9 8.5
2015-Jun-29 04:33N 46°26' W 002°06'1 1.2
2015-Jun-29 03:32N 46°27' W 002°06'2 1.6
2015-Jun-29 02:33N 46°28' W 002°05'0 0.3
2015-Jun-29 01:33N 46°28' W 002°04'1 0.7
2015-Jun-29 00:33N 46°29' W 002°05'1 1.4
2015-Jun-28 23:33N 46°28' W 002°04'0 0.2
2015-Jun-28 22:33N 46°28' W 002°03'0 0.0
2015-Jun-28 21:33N 46°28' W 002°03'0 0.0
2015-Jun-28 20:33N 46°28' W 002°03'0 0.0
2015-Jun-28 19:33N 46°28' W 002°03'0 0.0
2015-Jun-28 18:33N 46°28' W 002°03'0 0.0
2015-Jun-28 17:33N 46°28' W 002°03'0 0.0
2015-Jun-28 16:33N 46°28' W 002°03'0 0.0
2015-Jun-28 15:33N 46°28' W 002°03'0 0.0
2015-Jun-28 14:33N 46°28' W 002°03'0 0.0
2015-Jun-28 13:33N 46°28' W 002°03'0 0.0
2015-Jun-28 12:33N 46°28' W 002°03'1 0.8
2015-Jun-28 11:33N 46°28' W 002°04'3 3.1
2015-Jun-28 10:33N 46°25' W 002°06'2 2.3
2015-Jun-28 09:29N 46°28' W 002°04'8 8.2
2015-Jun-28 08:28N 46°35' W 002°10'3 3.3
2015-Jun-28 07:33N 46°36' W 002°14'1 1.4
2015-Jun-28 06:33N 46°37' W 002°16'1 1.4
2015-Jun-28 05:33N 46°36' W 002°15'0 0.3
2015-Jun-28 04:34N 46°36' W 002°15'1 1.3
2015-Jun-28 03:33N 46°37' W 002°16'2 1.7
2015-Jun-28 02:34N 46°36' W 002°14'1 0.5
2015-Jun-28 01:34N 46°36' W 002°14'1 1.3
2015-Jun-28 00:34N 46°38' W 002°15'2 1.9
2015-Jun-27 23:34N 46°36' W 002°13'1 0.6
2015-Jun-27 22:33N 46°36' W 002°13'0 0.0
2015-Jun-27 21:33N 46°36' W 002°13'0 0.1
2015-Jun-27 20:33N 46°36' W 002°13'0 0.0
2015-Jun-27 19:33N 46°36' W 002°13'0 0.0
2015-Jun-27 18:33N 46°36' W 002°13'0 0.0
2015-Jun-27 17:33N 46°36' W 002°13'0 0.0
2015-Jun-27 16:33N 46°36' W 002°13'0 0.0
2015-Jun-27 15:33N 46°36' W 002°13'0 0.0
2015-Jun-27 14:31N 46°36' W 002°13'0 0.2
2015-Jun-27 13:14N 46°35' W 002°13'2 1.2
2015-Jun-27 11:30N 46°34' W 002°12'7 7.9
2015-Jun-27 10:33N 46°29' W 002°03'8 7.6
2015-Jun-27 09:33N 46°22' W 001°59'3 2.8
2015-Jun-27 08:33N 46°20' W 001°57'1 1.0
2015-Jun-27 07:31N 46°19' W 001°59'1 1.2
2015-Jun-27 06:33N 46°19' W 001°57'2 1.2
2015-Jun-27 05:13N 46°19' W 001°59'1 1.8
2015-Jun-27 04:34N 46°20' W 001°58'0 0.4
2015-Jun-27 03:33N 46°19' W 001°58'0 0.5
2015-Jun-27 02:33N 46°20' W 001°58'1 0.8
2015-Jun-27 01:33N 46°19' W 001°59'0 0.5
2015-Jun-27 00:33N 46°19' W 001°59'0 0.0
2015-Jun-26 23:33N 46°19' W 001°59'0 0.0
2015-Jun-26 22:33N 46°19' W 001°59'0 0.0
2015-Jun-26 21:33N 46°19' W 001°59'0 0.0
2015-Jun-26 20:33N 46°19' W 001°59'0 0.0
2015-Jun-26 19:33N 46°19' W 001°59'0 0.0
2015-Jun-26 18:33N 46°19' W 001°59'0 0.0
2015-Jun-26 17:33N 46°19' W 001°59'0 0.0
2015-Jun-26 16:33N 46°19' W 001°59'0 0.0
2015-Jun-26 15:33N 46°19' W 001°60'0 0.0
2015-Jun-26 14:33N 46°19' W 001°60'0 0.0
2015-Jun-26 13:33N 46°19' W 001°60'1 0.6
2015-Jun-26 12:33N 46°19' W 001°59'1 1.0
2015-Jun-26 11:33N 46°20' W 001°57'2 1.9
2015-Jun-26 10:33N 46°18' W 001°59'2 2.0
2015-Jun-26 09:33N 46°20' W 001°57'1 0.6
2015-Jun-26 08:33N 46°19' W 001°58'0 0.3
2015-Jun-26 07:34N 46°19' W 001°58'0 0.3
2015-Jun-26 06:32N 46°19' W 001°59'4 4.0
2015-Jun-26 05:33N 46°16' W 001°56'4 4.2
2015-Jun-26 04:33N 46°14' W 001°50'1 1.3
2015-Jun-26 03:33N 46°16' W 001°51'1 1.1
2015-Jun-26 02:33N 46°15' W 001°49'2 1.6
2015-Jun-26 01:33N 46°16' W 001°50'7 6.7
2015-Jun-26 00:33N 46°23' W 001°49'7 7.2
2015-Jun-25 23:33N 46°30' W 001°47'0 0.0
2015-Jun-25 22:33N 46°30' W 001°47'0 0.0
2015-Jun-25 21:33N 46°30' W 001°47'0 0.0
2015-Jun-25 20:33N 46°30' W 001°47'0 0.0
2015-Jun-25 19:33N 46°30' W 001°47'0 0.0
2015-Jun-25 18:33N 46°30' W 001°47'0 0.0
2015-Jun-25 17:33N 46°30' W 001°47'0 0.0
2015-Jun-25 16:33N 46°30' W 001°47'0 0.0
2015-Jun-25 15:33N 46°30' W 001°47'0 0.0
2015-Jun-25 14:33N 46°30' W 001°47'0 0.0
2015-Jun-25 13:33N 46°30' W 001°47'0 0.0
2015-Jun-25 12:33N 46°30' W 001°47'5 5.0
2015-Jun-25 11:33N 46°26' W 001°51'8 7.9
2015-Jun-25 10:33N 46°20' W 001°58'2 1.6
2015-Jun-25 09:33N 46°18' W 001°58'6 6.0
2015-Jun-25 08:33N 46°15' W 001°50'3 2.9
2015-Jun-25 07:34N 46°18' W 001°48'2 2.2
2015-Jun-25 06:33N 46°19' W 001°45'2 2.1
2015-Jun-25 05:34N 46°17' W 001°48'1 0.9
2015-Jun-25 04:33N 46°18' W 001°46'1 0.9
2015-Jun-25 03:33N 46°19' W 001°46'2 1.7
2015-Jun-25 02:33N 46°18' W 001°48'2 2.1
2015-Jun-25 01:33N 46°19' W 001°45'2 1.8
2015-Jun-25 00:34N 46°18' W 001°48'1 1.2
2015-Jun-24 23:33N 46°17' W 001°49'0 0.0
2015-Jun-24 22:33N 46°17' W 001°49'0 0.0
2015-Jun-24 21:33N 46°17' W 001°49'0 0.0
2015-Jun-24 20:33N 46°17' W 001°49'0 0.0
2015-Jun-24 19:33N 46°17' W 001°49'0 0.0
2015-Jun-24 18:33N 46°17' W 001°48'0 0.0
2015-Jun-24 17:33N 46°17' W 001°48'0 0.0
2015-Jun-24 16:33N 46°17' W 001°48'0 0.0
2015-Jun-24 15:33N 46°17' W 001°49'0 0.0
2015-Jun-24 14:33N 46°17' W 001°49'0 0.0
2015-Jun-24 13:33N 46°17' W 001°49'0 0.0
2015-Jun-24 12:33N 46°17' W 001°49'2 2.0
2015-Jun-24 11:33N 46°18' W 001°46'1 1.1
2015-Jun-24 10:33N 46°18' W 001°47'4 3.6
2015-Jun-24 09:33N 46°19' W 001°52'4 4.4
2015-Jun-24 08:33N 46°20' W 001°59'0 0.3
2015-Jun-24 07:26N 46°20' W 001°58'0 0.3
2015-Jun-24 06:33N 46°20' W 001°58'0 0.4
2015-Jun-24 05:33N 46°19' W 001°57'1 0.7
2015-Jun-24 04:33N 46°20' W 001°58'1 1.1
2015-Jun-24 03:30N 46°19' W 001°59'0 0.2
2015-Jun-24 02:33N 46°19' W 001°59'0 0.1
2015-Jun-24 01:33N 46°19' W 001°59'0 0.4
2015-Jun-24 00:33N 46°19' W 001°59'0 0.1
2015-Jun-23 23:33N 46°19' W 001°59'0 0.0
2015-Jun-23 22:33N 46°19' W 001°59'0 0.0
2015-Jun-23 21:33N 46°19' W 001°59'0 0.0
2015-Jun-23 20:33N 46°19' W 001°59'0 0.0
2015-Jun-23 19:33N 46°19' W 001°59'0 0.0
2015-Jun-23 19:06N 46°19' W 001°59'  

Dump ship's entire track history